Time;durP1;ratioP1;P1;durP2;ratioP2;P2;SDS_P1;SDS_P2;PMS_P1;PMS_P2;Temp;Humidity;BMP_temperature;BMP_pressure;BME280_temperature;BME280_humidity;BME280_pressure;Samples;Min_cycle;Max_cycle;Signal;HPM_P1;HPM_P2
2023/05/21 00:00:23;;;;;;;2.67;2.13;;;;;;;;;;5014524;28;20671;-77
2023/05/21 00:02:48;;;;;;;1.92;1.70;;;;;;;;;;5012609;28;20190;-76
2023/05/21 00:05:15;;;;;;;3.65;2.00;;;;;;;;;;5010362;28;20699;-77
2023/05/21 00:07:40;;;;;;;2.58;2.35;;;;;;;;;;5012269;28;20198;-77
2023/05/21 00:10:06;;;;;;;4.25;2.00;;;;;;;;;;5010735;28;20183;-77
2023/05/21 00:12:31;;;;;;;2.35;2.15;;;;;;;;;;5017928;28;20260;-76
2023/05/21 00:14:57;;;;;;;2.72;2.20;;;;;;;;;;5011877;28;20262;-76
2023/05/21 00:19:50;;;;;;;6.40;1.90;;;;;;;;;;4988356;28;20220;-69
2023/05/21 00:22:15;;;;;;;2.85;2.08;;;;;;;;;;4985142;28;20595;-69
2023/05/21 00:24:41;;;;;;;2.88;2.40;;;;;;;;;;4985657;28;20183;-69
2023/05/21 00:27:06;;;;;;;2.58;2.20;;;;;;;;;;4994160;28;20172;-69
2023/05/21 00:29:31;;;;;;;4.38;2.17;;;;;;;;;;4999711;28;20207;-69
2023/05/21 00:31:56;;;;;;;3.30;2.13;;;;;;;;;;4992753;28;20242;-69
2023/05/21 00:34:22;;;;;;;3.85;2.58;;;;;;;;;;4994535;28;20300;-69
2023/05/21 00:36:47;;;;;;;2.95;2.55;;;;;;;;;;4992438;28;20179;-69
2023/05/21 00:39:12;;;;;;;2.63;1.88;;;;;;;;;;4996414;28;20724;-69
2023/05/21 00:41:39;;;;;;;3.80;2.13;;;;;;;;;;4995062;28;20199;-69
2023/05/21 00:44:04;;;;;;;2.47;2.25;;;;;;;;;;4991266;28;20180;-69
2023/05/21 00:46:30;;;;;;;3.00;2.55;;;;;;;;;;4993630;28;20172;-69
2023/05/21 00:48:56;;;;;;;3.80;2.28;;;;;;;;;;4993430;28;20692;-69
2023/05/21 00:51:22;;;;;;;4.95;2.38;;;;;;;;;;4992990;28;20710;-69
2023/05/21 00:53:49;;;;;;;3.33;2.50;;;;;;;;;;4992614;28;20275;-70
2023/05/21 00:56:14;;;;;;;7.00;2.75;;;;;;;;;;4993871;28;20720;-70
2023/05/21 00:58:39;;;;;;;3.63;2.55;;;;;;;;;;4993546;28;20211;-69
2023/05/21 01:01:05;;;;;;;4.45;2.67;;;;;;;;;;4992323;28;20211;-69
2023/05/21 01:03:36;;;;;;;3.25;2.80;;;;;;;;;;4992231;28;20646;-70
2023/05/21 01:06:03;;;;;;;7.22;2.88;;;;;;;;;;4991823;28;20238;-70
2023/05/21 01:08:28;;;;;;;5.85;2.90;;;;;;;;;;4991224;28;20588;-70
2023/05/21 01:10:54;;;;;;;5.75;2.70;;;;;;;;;;4992241;28;20275;-69
2023/05/21 01:13:21;;;;;;;3.22;2.67;;;;;;;;;;4992424;28;20176;-70
2023/05/21 01:15:46;;;;;;;5.30;2.72;;;;;;;;;;4991194;28;20184;-70
2023/05/21 01:18:13;;;;;;;3.58;2.60;;;;;;;;;;4997335;28;20570;-70
2023/05/21 01:20:38;;;;;;;2.97;2.67;;;;;;;;;;4995267;28;20172;-69
2023/05/21 01:23:04;;;;;;;3.17;2.78;;;;;;;;;;4996571;28;20562;-69
2023/05/21 01:25:29;;;;;;;3.50;2.63;;;;;;;;;;4993788;28;20183;-69
2023/05/21 01:27:54;;;;;;;3.13;2.75;;;;;;;;;;4994018;28;20281;-70
2023/05/21 01:30:21;;;;;;;2.88;2.47;;;;;;;;;;4995039;28;20187;-69
2023/05/21 01:33:05;;;;;;;3.33;2.70;;;;;;;;;;4996199;28;20171;-70
2023/05/21 01:35:34;;;;;;;3.53;2.88;;;;;;;;;;4990976;28;20180;-69
2023/05/21 01:38:02;;;;;;;4.65;3.13;;;;;;;;;;4991785;28;21338;-69
2023/05/21 01:40:27;;;;;;;3.03;2.40;;;;;;;;;;4989983;28;20249;-70
2023/05/21 01:42:53;;;;;;;4.17;2.90;;;;;;;;;;4993287;28;20714;-69
2023/05/21 01:45:18;;;;;;;3.90;3.13;;;;;;;;;;5003640;28;20430;-69
2023/05/21 01:47:46;;;;;;;2.60;2.10;;;;;;;;;;4998083;28;20200;-70
2023/05/21 01:50:12;;;;;;;3.40;2.80;;;;;;;;;;4997829;28;20179;-69
2023/05/21 01:52:37;;;;;;;3.90;2.80;;;;;;;;;;4993437;28;20190;-69
2023/05/21 01:55:02;;;;;;;4.53;3.15;;;;;;;;;;4991255;28;20176;-69
2023/05/21 01:57:28;;;;;;;7.38;2.83;;;;;;;;;;4992155;28;20190;-70
2023/05/21 01:59:55;;;;;;;2.65;2.45;;;;;;;;;;4997630;28;20189;-70
2023/05/21 02:02:20;;;;;;;4.80;2.97;;;;;;;;;;4991786;28;20199;-70
2023/05/21 02:04:46;;;;;;;5.18;3.40;;;;;;;;;;4994276;28;20188;-69
2023/05/21 02:07:13;;;;;;;4.47;3.42;;;;;;;;;;4992347;28;20179;-69
2023/05/21 02:09:39;;;;;;;5.00;3.40;;;;;;;;;;4991753;28;20178;-69
2023/05/21 02:12:05;;;;;;;4.00;2.70;;;;;;;;;;4992987;28;20195;-70
2023/05/21 02:14:32;;;;;;;3.20;2.90;;;;;;;;;;4994963;28;20184;-70
2023/05/21 02:16:57;;;;;;;3.72;3.08;;;;;;;;;;4992810;28;20585;-70
2023/05/21 02:19:22;;;;;;;3.88;2.72;;;;;;;;;;4990926;28;20298;-69
2023/05/21 02:21:48;;;;;;;4.45;3.03;;;;;;;;;;4998939;28;20584;-70
2023/05/21 02:24:13;;;;;;;4.30;3.13;;;;;;;;;;4991589;28;20267;-70
2023/05/21 02:26:38;;;;;;;5.93;3.35;;;;;;;;;;4991818;28;20183;-70
2023/05/21 02:29:03;;;;;;;3.63;3.15;;;;;;;;;;4991401;28;20204;-70
2023/05/21 02:31:28;;;;;;;3.97;3.58;;;;;;;;;;4989836;28;20190;-69
2023/05/21 02:33:55;;;;;;;4.78;3.58;;;;;;;;;;4990622;28;20218;-70
2023/05/21 02:36:20;;;;;;;5.10;3.78;;;;;;;;;;4992311;28;20547;-70
2023/05/21 02:38:45;;;;;;;4.07;3.55;;;;;;;;;;4992224;28;20196;-70
2023/05/21 02:41:10;;;;;;;5.75;3.65;;;;;;;;;;4993394;28;20655;-70
2023/05/21 02:43:36;;;;;;;4.78;3.30;;;;;;;;;;4991148;28;20263;-70
2023/05/21 02:46:01;;;;;;;3.60;3.05;;;;;;;;;;4991138;28;20199;-70
2023/05/21 02:48:26;;;;;;;4.65;3.08;;;;;;;;;;4991293;28;20578;-70
2023/05/21 02:50:51;;;;;;;3.38;3.08;;;;;;;;;;4990828;28;20187;-69
2023/05/21 02:53:17;;;;;;;5.72;3.20;;;;;;;;;;4990597;28;20176;-70
2023/05/21 02:55:42;;;;;;;5.38;3.85;;;;;;;;;;4991658;28;20187;-70
2023/05/21 02:58:07;;;;;;;4.40;3.72;;;;;;;;;;4988411;28;20270;-70
2023/05/21 03:00:32;;;;;;;6.10;3.97;;;;;;;;;;4990488;28;20546;-70
2023/05/21 03:02:57;;;;;;;5.22;3.83;;;;;;;;;;4990750;28;21369;-70
2023/05/21 03:05:23;;;;;;;4.95;3.33;;;;;;;;;;4993756;28;20206;-70
2023/05/21 03:07:48;;;;;;;4.40;3.17;;;;;;;;;;4994731;28;20274;-70
2023/05/21 03:10:13;;;;;;;4.60;3.35;;;;;;;;;;4996151;28;20183;-70
2023/05/21 03:12:39;;;;;;;5.45;3.17;;;;;;;;;;4993594;28;20230;-70
2023/05/21 03:15:04;;;;;;;4.93;3.30;;;;;;;;;;5010096;28;20195;-70
2023/05/21 03:17:29;;;;;;;6.38;3.50;;;;;;;;;;4992497;28;20176;-69
2023/05/21 03:19:55;;;;;;;4.65;3.50;;;;;;;;;;4992204;28;20576;-70
2023/05/21 03:22:20;;;;;;;4.88;3.30;;;;;;;;;;4991177;28;20207;-70
2023/05/21 03:24:45;;;;;;;4.57;3.35;;;;;;;;;;4990016;28;20211;-70
2023/05/21 03:27:10;;;;;;;7.43;3.55;;;;;;;;;;4998295;28;20188;-70
2023/05/21 03:29:38;;;;;;;6.22;3.20;;;;;;;;;;4991189;28;20175;-70
2023/05/21 03:32:04;;;;;;;3.70;3.35;;;;;;;;;;4991273;28;20186;-70
2023/05/21 03:34:29;;;;;;;4.85;3.25;;;;;;;;;;4995786;28;20556;-70
2023/05/21 03:36:55;;;;;;;5.47;3.30;;;;;;;;;;4992362;28;20183;-69
2023/05/21 03:39:20;;;;;;;4.95;3.40;;;;;;;;;;4996957;28;20206;-68
2023/05/21 03:41:45;;;;;;;4.68;3.53;;;;;;;;;;4990937;28;20218;-69
2023/05/21 03:44:10;;;;;;;4.85;3.55;;;;;;;;;;4991116;28;20191;-69
2023/05/21 03:46:36;;;;;;;7.47;3.63;;;;;;;;;;4997942;28;20202;-69
2023/05/21 03:49:01;;;;;;;4.50;3.53;;;;;;;;;;4994115;28;20226;-69
2023/05/21 03:51:26;;;;;;;3.90;3.30;;;;;;;;;;4991187;28;20183;-69
2023/05/21 03:53:52;;;;;;;5.68;3.90;;;;;;;;;;4990855;28;20192;-69
2023/05/21 03:56:17;;;;;;;4.63;3.65;;;;;;;;;;4988636;28;20657;-69
2023/05/21 03:58:42;;;;;;;4.05;3.63;;;;;;;;;;4990228;28;20234;-69
2023/05/21 04:01:07;;;;;;;4.82;3.50;;;;;;;;;;4992775;28;20211;-69
2023/05/21 04:03:34;;;;;;;6.32;3.33;;;;;;;;;;4993189;28;20175;-69
2023/05/21 04:05:59;;;;;;;6.53;3.70;;;;;;;;;;4993155;28;20171;-69
2023/05/21 04:08:25;;;;;;;5.32;3.92;;;;;;;;;;4994239;28;20207;-69
2023/05/21 04:10:50;;;;;;;6.03;3.67;;;;;;;;;;4993164;28;20294;-69
2023/05/21 04:13:15;;;;;;;4.88;4.10;;;;;;;;;;4994988;28;20177;-69
2023/05/21 04:15:42;;;;;;;5.28;3.80;;;;;;;;;;4995137;28;20561;-69
2023/05/21 04:18:07;;;;;;;5.32;3.20;;;;;;;;;;4994062;28;20297;-69
2023/05/21 04:20:32;;;;;;;4.22;3.17;;;;;;;;;;4996586;28;20664;-69
2023/05/21 04:22:58;;;;;;;4.80;4.05;;;;;;;;;;4996719;28;20732;-69
2023/05/21 04:25:24;;;;;;;5.75;3.78;;;;;;;;;;4993633;28;20614;-69
2023/05/21 04:27:49;;;;;;;4.65;3.40;;;;;;;;;;4992986;28;20616;-69
2023/05/21 04:30:14;;;;;;;5.60;3.97;;;;;;;;;;4994155;28;20195;-69
2023/05/21 04:32:40;;;;;;;6.07;3.33;;;;;;;;;;4995080;28;20211;-69
2023/05/21 04:35:05;;;;;;;4.47;3.28;;;;;;;;;;4991592;28;20184;-69
2023/05/21 04:37:33;;;;;;;7.55;3.25;;;;;;;;;;4995046;28;20634;-69
2023/05/21 04:40:00;;;;;;;5.18;4.13;;;;;;;;;;4999507;28;20186;-69
2023/05/21 04:42:25;;;;;;;5.50;3.88;;;;;;;;;;4994268;28;20211;-69
2023/05/21 04:44:50;;;;;;;3.50;3.20;;;;;;;;;;4992246;28;20180;-69
2023/05/21 04:47:17;;;;;;;3.83;3.28;;;;;;;;;;5001625;28;20811;-69
2023/05/21 04:49:43;;;;;;;4.05;3.10;;;;;;;;;;4993424;28;20521;-69
2023/05/21 04:52:08;;;;;;;6.03;3.63;;;;;;;;;;4993055;28;20180;-69
2023/05/21 04:54:35;;;;;;;4.75;3.47;;;;;;;;;;4991849;28;20713;-69
2023/05/21 04:57:01;;;;;;;4.72;4.22;;;;;;;;;;4993323;28;20206;-69
2023/05/21 04:59:26;;;;;;;5.13;3.33;;;;;;;;;;4992784;28;20961;-69
2023/05/21 05:01:52;;;;;;;5.43;3.28;;;;;;;;;;4987039;28;20396;-69
2023/05/21 05:04:17;;;;;;;6.38;4.10;;;;;;;;;;4991732;28;20206;-69
2023/05/21 05:06:42;;;;;;;4.63;3.53;;;;;;;;;;4992677;28;20724;-69
2023/05/21 05:09:07;;;;;;;5.60;3.75;;;;;;;;;;4992694;28;20196;-69
2023/05/21 05:11:33;;;;;;;4.05;3.30;;;;;;;;;;4991320;28;20708;-69
2023/05/21 05:13:58;;;;;;;4.60;3.50;;;;;;;;;;4993095;28;20545;-69
2023/05/21 05:16:26;;;;;;;5.13;3.42;;;;;;;;;;4992770;28;20183;-69
2023/05/21 05:18:52;;;;;;;8.45;3.67;;;;;;;;;;4997423;28;20215;-70
2023/05/21 05:21:17;;;;;;;4.75;3.45;;;;;;;;;;4993653;28;20204;-69
2023/05/21 05:23:42;;;;;;;4.40;3.22;;;;;;;;;;4997925;28;20217;-69
2023/05/21 05:26:07;;;;;;;5.03;3.40;;;;;;;;;;4993333;28;20183;-69
2023/05/21 05:28:32;;;;;;;5.03;3.88;;;;;;;;;;4991679;28;20231;-69
2023/05/21 05:30:58;;;;;;;5.57;3.45;;;;;;;;;;4993058;28;20580;-69
2023/05/21 05:33:23;;;;;;;6.90;3.78;;;;;;;;;;4996990;28;20299;-69
2023/05/21 05:35:48;;;;;;;4.43;3.42;;;;;;;;;;4995523;28;20251;-69
2023/05/21 05:38:13;;;;;;;5.15;3.50;;;;;;;;;;4995161;28;20700;-69
2023/05/21 05:40:39;;;;;;;5.30;4.30;;;;;;;;;;4994550;28;20179;-69
2023/05/21 05:43:04;;;;;;;4.90;3.58;;;;;;;;;;4997562;28;20218;-69
2023/05/21 05:45:29;;;;;;;5.90;3.88;;;;;;;;;;4991667;28;20747;-69
2023/05/21 05:47:54;;;;;;;4.55;3.35;;;;;;;;;;5000423;28;20207;-70
2023/05/21 05:50:20;;;;;;;4.78;3.40;;;;;;;;;;4990994;28;20178;-69
2023/05/21 05:52:45;;;;;;;4.53;3.63;;;;;;;;;;4991890;28;20183;-69
2023/05/21 05:55:11;;;;;;;4.22;3.63;;;;;;;;;;4996898;28;20179;-69
2023/05/21 05:57:36;;;;;;;3.75;3.40;;;;;;;;;;5016468;28;20230;-69
2023/05/21 06:00:02;;;;;;;4.88;3.53;;;;;;;;;;5003248;28;20197;-69
2023/05/21 06:02:27;;;;;;;3.90;3.50;;;;;;;;;;4993265;28;20207;-69
2023/05/21 06:04:52;;;;;;;5.07;3.70;;;;;;;;;;4991163;28;20180;-69
2023/05/21 06:07:17;;;;;;;5.00;3.45;;;;;;;;;;4992059;28;20207;-69
2023/05/21 06:09:42;;;;;;;5.55;3.95;;;;;;;;;;4991906;28;20264;-68
2023/05/21 06:12:08;;;;;;;5.85;3.90;;;;;;;;;;4992215;28;20258;-69
2023/05/21 06:14:33;;;;;;;7.70;4.10;;;;;;;;;;4991666;28;20211;-69
2023/05/21 06:16:58;;;;;;;5.35;3.75;;;;;;;;;;4990012;28;20219;-69
2023/05/21 06:19:23;;;;;;;8.10;3.63;;;;;;;;;;5018762;22;20456;-74
2023/05/21 06:21:49;;;;;;;6.88;3.67;;;;;;;;;;5014392;28;20692;-74
2023/05/21 06:24:14;;;;;;;5.75;4.00;;;;;;;;;;5012528;28;20228;-74
2023/05/21 06:26:40;;;;;;;6.80;3.67;;;;;;;;;;5006760;28;20215;-74
2023/05/21 06:29:05;;;;;;;4.43;3.85;;;;;;;;;;5011538;28;20201;-74
2023/05/21 06:31:31;;;;;;;4.88;3.38;;;;;;;;;;5013863;28;20193;-74
2023/05/21 06:33:57;;;;;;;6.03;4.18;;;;;;;;;;5012361;28;20229;-76
2023/05/21 06:36:24;;;;;;;6.70;4.45;;;;;;;;;;5016087;28;21493;-74
2023/05/21 06:38:50;;;;;;;4.38;3.92;;;;;;;;;;5014544;28;20304;-74
2023/05/21 06:41:15;;;;;;;5.65;4.45;;;;;;;;;;5011571;28;20369;-74
2023/05/21 06:43:40;;;;;;;11.75;4.28;;;;;;;;;;5019746;28;20175;-74
2023/05/21 06:46:05;;;;;;;4.57;3.70;;;;;;;;;;5011704;28;20182;-74
2023/05/21 06:48:31;;;;;;;8.68;4.03;;;;;;;;;;5012824;28;20471;-74
2023/05/21 06:50:56;;;;;;;4.88;4.10;;;;;;;;;;5015186;28;20177;-74
2023/05/21 06:53:21;;;;;;;6.00;4.50;;;;;;;;;;5014363;28;20171;-74
2023/05/21 06:55:47;;;;;;;5.50;4.40;;;;;;;;;;5011578;28;20236;-74
2023/05/21 06:58:13;;;;;;;6.13;3.83;;;;;;;;;;5009682;28;20194;-74
2023/05/21 07:00:38;;;;;;;6.30;4.00;;;;;;;;;;5013616;28;20262;-75
2023/05/21 07:03:03;;;;;;;6.60;4.55;;;;;;;;;;5014027;28;20980;-75
2023/05/21 07:05:28;;;;;;;8.35;4.55;;;;;;;;;;5014392;28;20187;-75
2023/05/21 07:07:53;;;;;;;6.10;4.07;;;;;;;;;;5011624;28;20210;-75
2023/05/21 07:10:19;;;;;;;5.53;4.20;;;;;;;;;;5012172;28;20182;-75
2023/05/21 07:12:44;;;;;;;6.13;4.55;;;;;;;;;;5012833;28;20179;-75
2023/05/21 07:15:09;;;;;;;9.18;4.50;;;;;;;;;;5011847;28;20645;-75
2023/05/21 07:17:34;;;;;;;6.25;4.70;;;;;;;;;;5009933;28;20595;-74
2023/05/21 07:20:00;;;;;;;7.75;4.35;;;;;;;;;;5012008;28;20646;-75
2023/05/21 07:22:25;;;;;;;6.88;4.43;;;;;;;;;;5014276;28;20213;-75
2023/05/21 07:24:50;;;;;;;9.60;4.50;;;;;;;;;;5012434;28;20543;-75
2023/05/21 07:27:15;;;;;;;5.88;3.97;;;;;;;;;;5012048;28;20594;-75
2023/05/21 07:29:41;;;;;;;11.50;4.63;;;;;;;;;;5013139;28;20676;-75
2023/05/21 07:32:06;;;;;;;4.68;3.65;;;;;;;;;;5009021;28;20186;-75
2023/05/21 07:34:31;;;;;;;5.97;4.28;;;;;;;;;;5009454;28;20692;-75
2023/05/21 07:36:57;;;;;;;5.75;4.07;;;;;;;;;;5016438;28;20198;-75
2023/05/21 07:39:22;;;;;;;6.18;4.45;;;;;;;;;;5015808;28;20229;-75
2023/05/21 07:41:47;;;;;;;7.13;4.22;;;;;;;;;;5017032;28;20205;-75
2023/05/21 07:44:12;;;;;;;6.80;4.67;;;;;;;;;;5015476;28;20571;-75
2023/05/21 07:46:38;;;;;;;5.93;4.32;;;;;;;;;;5010486;28;20416;-75
2023/05/21 07:49:03;;;;;;;5.80;3.92;;;;;;;;;;5014157;28;20203;-74
2023/05/21 07:51:28;;;;;;;7.20;4.17;;;;;;;;;;5013913;28;20198;-75
2023/05/21 07:53:53;;;;;;;10.40;4.78;;;;;;;;;;5020950;28;20411;-75
2023/05/21 07:56:18;;;;;;;4.95;4.45;;;;;;;;;;5023202;28;20261;-75
2023/05/21 07:58:44;;;;;;;6.18;3.95;;;;;;;;;;5030625;28;20673;-75
2023/05/21 08:01:10;;;;;;;6.15;4.18;;;;;;;;;;5031340;28;20186;-74
2023/05/21 08:03:35;;;;;;;7.95;4.20;;;;;;;;;;5034616;28;20183;-74
2023/05/21 08:06:00;;;;;;;6.57;4.63;;;;;;;;;;5024694;28;20210;-74
2023/05/21 08:08:25;;;;;;;7.90;4.40;;;;;;;;;;5015043;28;20502;-74
2023/05/21 08:10:50;;;;;;;6.05;4.47;;;;;;;;;;5015125;28;20569;-75
2023/05/21 08:13:16;;;;;;;9.37;4.30;;;;;;;;;;5016204;28;20187;-74
2023/05/21 08:15:41;;;;;;;5.97;4.90;;;;;;;;;;5015069;28;20952;-74
2023/05/21 08:18:06;;;;;;;6.70;4.25;;;;;;;;;;5014016;28;20210;-74
2023/05/21 08:20:32;;;;;;;7.57;4.30;;;;;;;;;;5020968;28;20174;-74
2023/05/21 08:22:58;;;;;;;6.55;4.32;;;;;;;;;;5020636;28;20203;-74
2023/05/21 08:25:24;;;;;;;7.82;4.35;;;;;;;;;;5017894;28;20179;-74
2023/05/21 08:27:49;;;;;;;5.07;4.35;;;;;;;;;;5019531;28;20486;-74
2023/05/21 08:30:15;;;;;;;5.35;4.50;;;;;;;;;;5024261;28;20706;-74
2023/05/21 08:32:40;;;;;;;7.45;4.35;;;;;;;;;;5015373;28;20197;-74
2023/05/21 08:35:07;;;;;;;5.30;4.07;;;;;;;;;;5012602;28;20617;-74
2023/05/21 08:37:32;;;;;;;5.15;3.78;;;;;;;;;;5019587;28;20242;-74
2023/05/21 08:39:57;;;;;;;7.60;4.10;;;;;;;;;;5014290;28;20183;-75
2023/05/21 08:42:35;;;;;;;6.43;4.35;;;;;;;;;;5023216;28;20201;-74
2023/05/21 08:45:03;;;;;;;7.07;4.03;;;;;;;;;;5009022;28;20190;-75
2023/05/21 08:47:30;;;;;;;5.57;4.72;;;;;;;;;;5020421;28;20185;-74
2023/05/21 08:49:57;;;;;;;4.60;4.03;;;;;;;;;;5015826;28;20181;-74
2023/05/21 08:52:22;;;;;;;6.43;5.25;;;;;;;;;;5029244;28;20181;-74
2023/05/21 08:54:51;;;;;;;6.53;4.25;;;;;;;;;;5016460;28;20182;-74
2023/05/21 08:57:17;;;;;;;5.75;4.80;;;;;;;;;;5015488;28;20261;-74
2023/05/21 08:59:43;;;;;;;5.80;4.20;;;;;;;;;;5013782;28;20230;-74
2023/05/21 09:02:12;;;;;;;5.63;4.18;;;;;;;;;;5009412;28;20199;-74
2023/05/21 09:04:38;;;;;;;5.00;4.18;;;;;;;;;;5015812;28;20183;-74
2023/05/21 09:07:04;;;;;;;4.95;4.00;;;;;;;;;;5015516;28;20577;-74
2023/05/21 09:09:33;;;;;;;7.32;4.35;;;;;;;;;;5013198;28;20289;-74
2023/05/21 09:11:58;;;;;;;5.43;4.25;;;;;;;;;;5012853;28;20355;-74
2023/05/21 09:14:25;;;;;;;6.63;4.45;;;;;;;;;;5014068;28;20274;-73
2023/05/21 09:16:50;;;;;;;8.95;4.68;;;;;;;;;;5012624;28;20183;-74
2023/05/21 09:19:15;;;;;;;6.32;4.47;;;;;;;;;;5012367;28;20751;-74
2023/05/21 09:21:40;;;;;;;5.67;4.43;;;;;;;;;;5022558;28;20250;-75
2023/05/21 09:24:08;;;;;;;7.45;5.15;;;;;;;;;;5015137;28;20405;-74
2023/05/21 09:26:33;;;;;;;5.45;4.40;;;;;;;;;;5012952;28;20183;-75
2023/05/21 09:28:59;;;;;;;5.60;4.13;;;;;;;;;;5014697;28;20704;-75
2023/05/21 09:31:25;;;;;;;7.38;4.40;;;;;;;;;;5015065;28;20685;-75
2023/05/21 09:33:51;;;;;;;5.25;4.03;;;;;;;;;;5012237;28;20191;-74
2023/05/21 09:36:19;;;;;;;6.65;4.57;;;;;;;;;;5017965;28;20171;-73
2023/05/21 09:38:44;;;;;;;7.03;4.10;;;;;;;;;;5019809;28;20667;-74
2023/05/21 09:41:10;;;;;;;7.22;4.43;;;;;;;;;;5016592;28;20276;-74
2023/05/21 09:43:35;;;;;;;7.53;4.30;;;;;;;;;;5019013;28;20230;-74
2023/05/21 09:46:00;;;;;;;7.75;4.57;;;;;;;;;;5017680;28;20179;-74
2023/05/21 09:48:31;;;;;;;7.80;4.93;;;;;;;;;;5021981;28;20226;-74
2023/05/21 09:51:06;;;;;;;5.90;4.32;;;;;;;;;;5014068;28;20201;-74
2023/05/21 09:53:31;;;;;;;5.18;3.72;;;;;;;;;;5010759;28;20559;-74
2023/05/21 09:55:57;;;;;;;5.17;4.27;;;;;;;;;;5016421;28;20702;-73
2023/05/21 09:58:22;;;;;;;7.80;4.72;;;;;;;;;;5017651;28;20447;-74
2023/05/21 10:00:47;;;;;;;7.43;4.75;;;;;;;;;;5021419;28;20175;-74
2023/05/21 10:03:13;;;;;;;7.28;4.55;;;;;;;;;;5023746;28;20197;-74
2023/05/21 10:05:39;;;;;;;7.70;4.38;;;;;;;;;;5013062;28;20224;-74
2023/05/21 10:08:07;;;;;;;6.07;4.78;;;;;;;;;;5016458;28;20247;-74
2023/05/21 10:10:34;;;;;;;5.88;4.25;;;;;;;;;;5014523;28;20189;-75
2023/05/21 10:13:02;;;;;;;6.30;4.45;;;;;;;;;;5013148;28;20321;-74
2023/05/21 10:15:30;;;;;;;5.15;4.28;;;;;;;;;;5014893;28;20198;-75
2023/05/21 10:17:56;;;;;;;6.07;4.25;;;;;;;;;;5013932;28;20858;-75
2023/05/21 10:20:21;;;;;;;8.45;4.93;;;;;;;;;;5011807;28;20278;-75
2023/05/21 10:22:47;;;;;;;5.85;4.10;;;;;;;;;;5022328;28;20205;-75
2023/05/21 10:25:12;;;;;;;8.10;4.30;;;;;;;;;;5013851;28;20206;-74
2023/05/21 10:27:38;;;;;;;5.57;4.25;;;;;;;;;;5012590;28;20183;-74
2023/05/21 10:30:04;;;;;;;6.10;4.82;;;;;;;;;;5014994;28;20596;-75
2023/05/21 10:32:30;;;;;;;5.70;4.07;;;;;;;;;;5012831;28;20233;-75
2023/05/21 10:34:56;;;;;;;7.82;4.70;;;;;;;;;;5011823;28;20187;-75
2023/05/21 10:37:25;;;;;;;6.15;4.65;;;;;;;;;;5011772;28;20179;-75
2023/05/21 10:39:50;;;;;;;5.20;4.43;;;;;;;;;;5012856;28;20198;-75
2023/05/21 10:42:28;;;;;;;6.35;4.65;;;;;;;;;;5003860;28;20206;-75
2023/05/21 10:44:53;;;;;;;5.53;4.20;;;;;;;;;;5009298;28;20186;-75
2023/05/21 10:47:30;;;;;;;5.60;4.47;;;;;;;;;;5015960;28;20168;-75
2023/05/21 10:50:07;;;;;;;4.82;4.32;;;;;;;;;;5011364;28;20477;-74
2023/05/21 10:52:33;;;;;;;5.45;4.30;;;;;;;;;;5012000;28;20649;-75
2023/05/21 10:55:22;;;;;;;8.43;5.00;;;;;;;;;;5009824;28;20187;-74
2023/05/21 10:57:50;;;;;;;6.82;4.63;;;;;;;;;;5011621;28;20284;-75
2023/05/21 11:00:16;;;;;;;5.65;4.20;;;;;;;;;;5011030;28;20233;-75
2023/05/21 11:02:42;;;;;;;6.22;4.75;;;;;;;;;;5012751;28;20207;-74
2023/05/21 11:05:07;;;;;;;6.18;4.78;;;;;;;;;;5011113;28;20203;-73
2023/05/21 11:08:01;;;;;;;5.60;4.15;;;;;;;;;;5017755;28;20182;-74
2023/05/21 11:10:39;;;;;;;12.23;5.38;;;;;;;;;;5011138;28;20175;-74
2023/05/21 11:13:05;;;;;;;6.03;3.95;;;;;;;;;;5010084;28;20191;-74
2023/05/21 11:15:30;;;;;;;5.00;3.63;;;;;;;;;;5016923;28;20240;-74
2023/05/21 11:17:55;;;;;;;4.70;3.77;;;;;;;;;;5012567;28;20256;-74
2023/05/21 11:20:21;;;;;;;7.32;3.95;;;;;;;;;;5015276;28;20600;-75
2023/05/21 11:22:46;;;;;;;4.93;3.83;;;;;;;;;;5013787;28;20199;-74
2023/05/21 11:25:12;;;;;;;4.67;3.83;;;;;;;;;;5008256;28;20171;-74
2023/05/21 11:27:38;;;;;;;7.07;3.72;;;;;;;;;;5011896;28;20477;-74
2023/05/21 11:30:14;;;;;;;5.47;4.07;;;;;;;;;;5012434;28;20210;-74
2023/05/21 11:33:00;;;;;;;6.43;3.90;;;;;;;;;;5012549;28;20178;-74
2023/05/21 11:35:25;;;;;;;4.75;4.32;;;;;;;;;;5009075;28;20233;-75
2023/05/21 11:37:52;;;;;;;6.78;4.40;;;;;;;;;;5009542;28;20242;-74
2023/05/21 11:40:18;;;;;;;6.05;4.07;;;;;;;;;;5011466;28;20183;-74
2023/05/21 11:42:48;;;;;;;6.57;4.72;;;;;;;;;;5012495;28;20199;-74
2023/05/21 11:45:15;;;;;;;7.25;4.18;;;;;;;;;;5010112;28;20183;-74
2023/05/21 11:47:42;;;;;;;6.03;3.97;;;;;;;;;;5013556;28;20237;-74
2023/05/21 11:50:11;;;;;;;6.13;4.53;;;;;;;;;;5009786;28;20171;-74
2023/05/21 11:52:36;;;;;;;5.90;4.30;;;;;;;;;;5010093;28;20190;-74
2023/05/21 11:55:03;;;;;;;6.70;4.13;;;;;;;;;;5009607;28;20580;-75
2023/05/21 11:57:31;;;;;;;7.70;4.50;;;;;;;;;;5011061;28;20218;-72
2023/05/21 11:59:57;;;;;;;5.32;4.25;;;;;;;;;;5010334;28;20229;-73
2023/05/21 12:02:23;;;;;;;6.10;4.03;;;;;;;;;;5012384;28;20187;-74
2023/05/21 12:04:49;;;;;;;7.82;4.40;;;;;;;;;;5005728;28;20554;-74
2023/05/21 12:07:16;;;;;;;5.32;4.40;;;;;;;;;;5014652;28;20718;-75
2023/05/21 12:09:42;;;;;;;6.32;4.13;;;;;;;;;;5010414;28;20286;-73
2023/05/21 12:12:08;;;;;;;6.28;3.90;;;;;;;;;;5012308;28;20241;-73
2023/05/21 12:14:33;;;;;;;5.88;4.45;;;;;;;;;;5010270;28;20183;-74
2023/05/21 12:16:58;;;;;;;6.30;4.60;;;;;;;;;;5021017;28;20222;-73
2023/05/21 12:19:24;;;;;;;5.00;3.83;;;;;;;;;;5028474;23;20252;-67
2023/05/21 12:21:49;;;;;;;5.95;4.25;;;;;;;;;;5007867;28;20456;-69
2023/05/21 12:24:15;;;;;;;6.13;4.35;;;;;;;;;;5015796;28;20202;-69
2023/05/21 12:26:41;;;;;;;5.03;3.83;;;;;;;;;;5014206;28;20262;-69
2023/05/21 12:29:06;;;;;;;5.55;4.18;;;;;;;;;;5013178;28;20223;-68
2023/05/21 12:31:32;;;;;;;6.55;4.05;;;;;;;;;;5012252;28;20233;-68
2023/05/21 12:33:57;;;;;;;9.33;4.63;;;;;;;;;;5011765;28;20182;-68
2023/05/21 12:36:26;;;;;;;6.07;4.70;;;;;;;;;;5014079;28;20452;-67
2023/05/21 12:38:52;;;;;;;4.85;4.15;;;;;;;;;;5007723;28;20199;-69
2023/05/21 12:41:17;;;;;;;5.57;4.45;;;;;;;;;;5018354;28;20182;-68
2023/05/21 12:43:43;;;;;;;6.95;4.50;;;;;;;;;;5011553;28;20174;-68
2023/05/21 12:46:11;;;;;;;10.32;5.97;;;;;;;;;;5013530;28;20167;-69
2023/05/21 12:48:37;;;;;;;7.07;4.63;;;;;;;;;;5011908;28;20244;-68
2023/05/21 12:51:02;;;;;;;5.88;4.15;;;;;;;;;;5016392;28;20170;-69
2023/05/21 12:53:35;;;;;;;6.82;4.10;;;;;;;;;;5009719;28;20595;-69
2023/05/21 12:56:10;;;;;;;5.07;3.67;;;;;;;;;;5012609;28;20210;-69
2023/05/21 12:58:37;;;;;;;6.80;4.50;;;;;;;;;;5018215;28;20292;-68
2023/05/21 13:01:04;;;;;;;4.20;3.78;;;;;;;;;;5013701;28;20206;-69
2023/05/21 13:03:30;;;;;;;6.57;4.50;;;;;;;;;;5010501;28;20222;-68
2023/05/21 13:05:57;;;;;;;9.15;4.50;;;;;;;;;;5013680;28;20190;-69
2023/05/21 13:08:22;;;;;;;10.93;3.90;;;;;;;;;;5013005;28;20246;-69
2023/05/21 13:10:47;;;;;;;6.03;4.57;;;;;;;;;;5011985;28;20214;-68
2023/05/21 13:13:12;;;;;;;7.03;4.00;;;;;;;;;;5012930;28;20428;-68
2023/05/21 13:15:37;;;;;;;5.93;4.27;;;;;;;;;;5011254;28;20960;-69
2023/05/21 13:18:03;;;;;;;10.53;4.00;;;;;;;;;;5013223;28;20421;-68
2023/05/21 13:20:28;;;;;;;5.90;4.23;;;;;;;;;;5011922;28;20490;-67
2023/05/21 13:22:53;;;;;;;7.75;4.25;;;;;;;;;;5006721;28;20592;-68
2023/05/21 13:25:20;;;;;;;6.40;4.25;;;;;;;;;;5011383;28;20668;-69
2023/05/21 13:27:46;;;;;;;6.65;4.13;;;;;;;;;;5011050;28;20189;-68
2023/05/21 13:30:11;;;;;;;4.63;3.67;;;;;;;;;;5012071;28;20213;-68
2023/05/21 13:32:37;;;;;;;8.20;4.97;;;;;;;;;;5012641;28;20183;-68
2023/05/21 13:35:02;;;;;;;4.20;3.80;;;;;;;;;;5009598;28;20179;-68
2023/05/21 13:37:28;;;;;;;5.72;4.05;;;;;;;;;;5012756;28;20198;-68
2023/05/21 13:39:53;;;;;;;9.82;4.53;;;;;;;;;;5012208;28;20216;-68
2023/05/21 13:42:19;;;;;;;6.75;4.25;;;;;;;;;;5012999;28;20226;-69
2023/05/21 13:44:45;;;;;;;5.93;3.90;;;;;;;;;;5010853;28;20269;-67
2023/05/21 13:47:10;;;;;;;5.20;3.58;;;;;;;;;;5013572;28;20266;-68
2023/05/21 13:49:36;;;;;;;7.35;4.10;;;;;;;;;;5013063;28;20285;-68
2023/05/21 13:52:02;;;;;;;8.05;3.55;;;;;;;;;;5009900;28;20599;-67
2023/05/21 13:54:27;;;;;;;20.25;4.55;;;;;;;;;;5011422;28;20186;-69
2023/05/21 13:56:53;;;;;;;5.97;4.40;;;;;;;;;;5012973;28;20195;-69
2023/05/21 13:59:18;;;;;;;7.40;3.70;;;;;;;;;;5012312;28;20688;-69
2023/05/21 14:01:44;;;;;;;6.10;3.87;;;;;;;;;;5011812;28;20609;-68
2023/05/21 14:04:09;;;;;;;5.05;3.42;;;;;;;;;;5010731;28;20959;-69
2023/05/21 14:06:35;;;;;;;5.82;4.07;;;;;;;;;;5013572;28;20183;-68
2023/05/21 14:09:00;;;;;;;3.90;3.20;;;;;;;;;;5011510;28;20680;-68
2023/05/21 14:11:26;;;;;;;5.65;3.58;;;;;;;;;;5011724;28;20432;-68
2023/05/21 14:13:52;;;;;;;4.47;2.95;;;;;;;;;;5007798;28;20194;-67
2023/05/21 14:16:17;;;;;;;6.57;3.67;;;;;;;;;;5010316;28;20180;-69
2023/05/21 14:18:42;;;;;;;5.43;3.58;;;;;;;;;;5011532;28;20683;-68
2023/05/21 14:21:07;;;;;;;5.33;2.90;;;;;;;;;;5011580;28;20388;-68
2023/05/21 14:23:33;;;;;;;5.68;3.05;;;;;;;;;;5010283;28;20590;-68
2023/05/21 14:25:58;;;;;;;7.67;3.30;;;;;;;;;;5012664;28;20179;-67
2023/05/21 14:28:23;;;;;;;5.20;3.05;;;;;;;;;;5010884;28;20475;-67
2023/05/21 14:30:48;;;;;;;6.63;3.70;;;;;;;;;;5012604;28;20644;-67
2023/05/21 14:33:15;;;;;;;5.57;3.58;;;;;;;;;;5010986;28;20444;-67
2023/05/21 14:35:42;;;;;;;7.88;2.97;;;;;;;;;;5009413;28;20579;-67
2023/05/21 14:38:07;;;;;;;3.95;2.90;;;;;;;;;;5009054;28;20182;-68